createdAt,value
2023-12-14T00:01:53.134Z,93025.00
2023-12-14T00:04:22.669Z,93023.00
2023-12-14T00:06:52.229Z,93027.00
2023-12-14T00:09:19.183Z,93029.00
2023-12-14T00:11:48.726Z,93032.00
2023-12-14T00:14:15.683Z,93032.00
2023-12-14T00:16:42.624Z,93034.00
2023-12-14T00:19:11.887Z,93046.00
2023-12-14T00:21:38.797Z,93045.00
2023-12-14T00:24:06.095Z,93053.00
2023-12-14T00:26:35.488Z,93045.00
2023-12-14T00:29:02.817Z,93051.00
2023-12-14T00:31:30.286Z,93041.00
2023-12-14T00:33:57.296Z,93050.00
2023-12-14T00:36:24.225Z,93057.00
2023-12-14T00:38:53.708Z,93065.00
2023-12-14T00:41:20.616Z,93064.00
2023-12-14T00:43:47.623Z,93068.00
2023-12-14T00:46:14.565Z,93070.00
2023-12-14T00:48:44.910Z,93073.00
2023-12-14T00:51:11.921Z,93079.00
2023-12-14T00:53:38.888Z,93071.00
2023-12-14T00:56:11.134Z,93089.00
2023-12-14T00:58:38.319Z,93080.00
2023-12-14T01:01:07.982Z,93086.00
2023-12-14T01:03:34.933Z,93095.00
2023-12-14T01:06:04.322Z,93103.00
2023-12-14T01:08:31.294Z,93107.00
2023-12-14T01:10:58.307Z,93105.00
2023-12-14T01:13:25.296Z,93113.00
2023-12-14T01:15:54.290Z,93119.00
2023-12-14T01:18:21.398Z,93120.00
2023-12-14T01:20:48.648Z,93117.00
2023-12-14T01:23:17.773Z,93125.00
2023-12-14T01:25:44.785Z,93125.00
2023-12-14T01:28:11.815Z,93133.00
2023-12-14T01:30:38.815Z,93137.00
2023-12-14T01:33:08.253Z,93129.00
2023-12-14T01:35:35.208Z,93136.00
2023-12-14T01:38:02.228Z,93142.00
2023-12-14T01:40:31.405Z,93141.00
2023-12-14T01:43:09.667Z,93152.00
2023-12-14T01:45:36.628Z,93153.00
2023-12-14T01:48:03.742Z,93151.00
2023-12-14T01:50:30.704Z,93158.00
2023-12-14T01:52:57.702Z,93153.00
2023-12-14T01:55:28.018Z,93153.00
2023-12-14T01:57:57.365Z,93159.00
2023-12-14T02:00:54.158Z,93163.00
2023-12-14T02:03:21.156Z,93151.00
2023-12-14T02:05:50.490Z,93147.00
2023-12-14T02:08:17.421Z,93175.00
2023-12-14T02:10:44.406Z,93162.00
2023-12-14T02:13:13.632Z,93177.00
2023-12-14T02:15:40.671Z,93178.00
2023-12-14T02:18:07.708Z,93180.00
2023-12-14T02:20:34.669Z,93185.00
2023-12-14T02:23:02.989Z,93177.00
2023-12-14T02:25:30.008Z,93175.00
2023-12-14T02:27:57.301Z,93187.00
2023-12-14T02:30:24.216Z,93189.00
2023-12-14T02:32:51.169Z,93188.00
2023-12-14T02:35:23.757Z,93188.00
2023-12-14T02:37:53.948Z,93201.00
2023-12-14T02:40:23.491Z,93205.00
2023-12-14T02:42:54.945Z,93214.00
2023-12-14T02:45:24.353Z,93211.00
2023-12-14T02:47:55.365Z,93211.00
2023-12-14T02:50:22.350Z,93223.00
2023-12-14T02:52:49.283Z,93205.00
2023-12-14T02:55:16.272Z,93219.00
2023-12-14T02:57:43.247Z,93228.00
2023-12-14T03:00:13.914Z,93225.00
2023-12-14T03:02:40.840Z,93222.00
2023-12-14T03:05:10.722Z,93227.00
2023-12-14T03:07:40.150Z,93224.00
2023-12-14T03:10:08.139Z,93229.00
2023-12-14T03:12:38.424Z,93230.00
2023-12-14T03:15:08.348Z,93244.00
2023-12-14T03:17:36.146Z,93244.00
2023-12-14T03:20:04.797Z,93244.00
2023-12-14T03:22:34.386Z,93238.00
2023-12-14T03:25:01.452Z,93248.00
2023-12-14T03:27:28.364Z,93255.00
2023-12-14T03:29:55.347Z,93248.00
2023-12-14T03:32:29.329Z,93254.00
2023-12-14T03:34:58.985Z,93254.00
2023-12-14T03:37:25.949Z,93253.00
2023-12-14T03:39:55.137Z,93261.00
2023-12-14T03:42:22.514Z,93269.00
2023-12-14T03:44:49.392Z,93265.00
2023-12-14T03:47:18.565Z,93273.00
2023-12-14T03:49:47.698Z,93285.00
2023-12-14T03:52:14.554Z,93287.00
2023-12-14T03:54:41.455Z,93292.00
2023-12-14T03:57:11.202Z,93298.00
2023-12-14T03:59:45.832Z,93294.00
2023-12-14T04:02:15.046Z,93299.00
2023-12-14T04:04:42.078Z,93306.00
2023-12-14T04:07:11.437Z,93311.00
2023-12-14T04:09:38.409Z,93313.00
2023-12-14T04:12:12.439Z,93322.00
2023-12-14T04:14:41.437Z,93327.00
2023-12-14T04:17:10.953Z,93327.00
2023-12-14T04:19:40.628Z,93337.00
2023-12-14T04:22:07.613Z,93332.00
2023-12-14T04:24:35.054Z,93337.00
2023-12-14T04:27:02.074Z,93340.00
2023-12-14T04:29:28.965Z,93335.00
2023-12-14T04:31:58.044Z,93351.00
2023-12-14T04:34:24.995Z,93349.00
2023-12-14T04:36:58.539Z,93359.00
2023-12-14T04:39:26.372Z,93354.00
2023-12-14T04:41:54.201Z,93361.00
2023-12-14T04:44:22.520Z,93375.00
2023-12-14T04:46:52.394Z,93381.00
2023-12-14T04:49:20.931Z,93374.00
2023-12-14T04:51:50.340Z,93387.00
2023-12-14T04:54:19.410Z,93387.00
2023-12-14T04:56:51.561Z,93386.00
2023-12-14T04:59:20.999Z,93387.00
2023-12-14T05:01:50.498Z,93394.00
2023-12-14T05:04:17.442Z,93404.00
2023-12-14T05:06:46.671Z,93403.00
2023-12-14T05:09:13.624Z,93414.00
2023-12-14T05:11:44.086Z,93404.00
2023-12-14T05:14:11.072Z,93412.00
2023-12-14T05:16:40.555Z,93419.00
2023-12-14T05:19:09.702Z,93418.00
2023-12-14T05:21:36.937Z,93415.00
2023-12-14T05:24:04.092Z,93416.00
2023-12-14T05:26:33.326Z,93423.00
2023-12-14T05:29:00.373Z,93431.00
2023-12-14T05:31:29.776Z,93437.00
2023-12-14T05:33:56.751Z,93445.00
2023-12-14T05:36:26.099Z,93443.00
2023-12-14T05:38:52.984Z,93442.00
2023-12-14T05:41:22.106Z,93444.00
2023-12-14T05:43:49.068Z,93454.00
2023-12-14T05:46:25.744Z,93447.00
2023-12-14T05:48:52.818Z,93466.00
2023-12-14T05:51:36.468Z,93466.00
2023-12-14T05:54:03.567Z,93467.00
2023-12-14T05:56:30.596Z,93480.00
2023-12-14T05:58:57.524Z,93478.00
2023-12-14T06:01:25.924Z,93482.00
2023-12-14T06:03:55.309Z,93485.00
2023-12-14T06:06:27.371Z,93499.00
2023-12-14T06:08:54.327Z,93497.00
2023-12-14T06:11:21.520Z,93510.00
2023-12-14T06:13:48.635Z,93513.00
2023-12-14T06:16:15.516Z,93514.00
2023-12-14T06:18:44.457Z,93514.00
2023-12-14T06:21:13.634Z,93525.00
2023-12-14T06:23:42.914Z,93520.00
2023-12-14T06:26:12.414Z,93529.00
2023-12-14T06:28:39.737Z,93541.00
2023-12-14T06:31:06.811Z,93539.00
2023-12-14T06:33:33.815Z,93546.00
2023-12-14T06:36:05.917Z,93555.00
2023-12-14T06:38:33.030Z,93566.00
2023-12-14T06:40:59.950Z,93568.00
2023-12-14T06:43:26.852Z,93566.00
2023-12-14T06:45:53.717Z,93572.00
2023-12-14T06:48:21.943Z,93576.00
2023-12-14T06:50:49.132Z,93574.00
2023-12-14T06:53:17.134Z,93581.00
2023-12-14T06:55:44.262Z,93576.00
2023-12-14T06:58:12.878Z,93578.00
2023-12-14T07:00:44.796Z,93588.00
2023-12-14T07:03:11.755Z,93590.00
2023-12-14T07:05:42.604Z,93580.00
2023-12-14T07:08:11.890Z,93595.00
2023-12-14T07:10:38.812Z,93602.00
2023-12-14T07:13:05.879Z,93604.00
2023-12-14T07:15:33.262Z,93602.00
2023-12-14T07:18:00.256Z,93611.00
2023-12-14T07:20:27.262Z,93615.00
2023-12-14T07:22:54.187Z,93627.00
2023-12-14T07:25:23.620Z,93629.00
2023-12-14T07:27:52.981Z,93644.00
2023-12-14T07:30:24.230Z,93645.00
2023-12-14T07:32:52.218Z,93649.00
2023-12-14T07:35:19.183Z,93639.00
2023-12-14T07:37:46.190Z,93652.00
2023-12-14T07:40:13.294Z,93653.00
2023-12-14T07:42:40.209Z,93655.00
2023-12-14T07:45:10.787Z,93664.00
2023-12-14T07:47:38.050Z,93664.00
2023-12-14T07:50:05.853Z,93664.00
2023-12-14T07:52:36.295Z,93669.00
2023-12-14T07:55:04.279Z,93677.00
2023-12-14T07:57:36.028Z,93681.00
2023-12-14T08:00:05.036Z,93685.00
2023-12-14T08:02:32.192Z,93685.00
2023-12-14T08:04:59.253Z,93698.00
2023-12-14T08:07:31.231Z,93698.00
2023-12-14T08:10:04.126Z,93700.00
2023-12-14T08:12:34.186Z,93701.00
2023-12-14T08:15:03.439Z,93711.00
2023-12-14T08:17:30.439Z,93716.00
2023-12-14T08:19:57.338Z,93712.00
2023-12-14T08:22:26.509Z,93725.00
2023-12-14T08:24:53.434Z,93730.00
2023-12-14T08:27:24.867Z,93737.00
2023-12-14T08:29:51.802Z,93739.00
2023-12-14T08:32:21.241Z,93742.00
2023-12-14T08:34:50.690Z,93742.00
2023-12-14T08:37:19.870Z,93751.00
2023-12-14T08:39:49.264Z,93750.00
2023-12-14T08:42:19.127Z,93758.00
2023-12-14T08:44:46.029Z,93762.00
2023-12-14T08:47:13.029Z,93768.00
2023-12-14T08:49:42.068Z,93773.00
2023-12-14T08:52:12.603Z,93787.00
2023-12-14T08:54:44.604Z,93783.00
2023-12-14T08:57:15.089Z,93799.00
2023-12-14T08:59:44.916Z,93800.00
2023-12-14T09:02:12.560Z,93798.00
2023-12-14T09:04:41.822Z,93802.00
2023-12-14T09:07:11.368Z,93809.00
2023-12-14T09:09:40.569Z,93813.00
2023-12-14T09:12:09.715Z,93820.00
2023-12-14T09:14:37.152Z,93812.00
2023-12-14T09:17:04.357Z,93829.00
2023-12-14T09:19:33.876Z,93832.00
2023-12-14T09:22:00.806Z,93831.00
2023-12-14T09:24:30.130Z,93837.00
2023-12-14T09:26:59.514Z,93842.00
2023-12-14T09:29:26.544Z,93850.00
2023-12-14T09:32:00.532Z,93856.00
2023-12-14T09:34:27.532Z,93851.00
2023-12-14T09:36:56.773Z,93858.00
2023-12-14T09:39:29.231Z,93864.00
2023-12-14T09:42:08.491Z,93864.00
2023-12-14T09:44:39.152Z,93866.00
2023-12-14T09:47:08.602Z,93874.00
2023-12-14T09:49:37.009Z,93881.00
2023-12-14T09:52:08.638Z,93874.00
2023-12-14T09:54:37.882Z,93881.00
2023-12-14T09:57:05.080Z,93892.00
2023-12-14T09:59:34.560Z,93893.00
2023-12-14T10:02:15.049Z,93891.00
2023-12-14T10:04:48.002Z,93892.00
2023-12-14T10:07:16.764Z,93891.00
2023-12-14T10:09:43.848Z,93887.00
2023-12-14T10:12:11.710Z,93898.00
2023-12-14T10:14:40.868Z,93897.00
2023-12-14T10:17:32.905Z,93902.00
2023-12-14T10:20:05.505Z,93910.00
2023-12-14T10:22:33.679Z,93906.00
2023-12-14T10:25:02.834Z,93901.00
2023-12-14T10:27:31.970Z,93923.00
2023-12-14T10:29:58.913Z,93919.00
2023-12-14T10:32:26.017Z,93909.00
2023-12-14T10:34:53.021Z,93914.00
2023-12-14T10:37:23.051Z,93914.00
2023-12-14T10:39:52.105Z,93915.00
2023-12-14T10:42:21.841Z,93919.00
2023-12-14T10:45:11.724Z,93920.00
2023-12-14T10:47:47.971Z,93922.00
2023-12-14T10:50:20.800Z,93928.00
2023-12-14T10:52:52.975Z,93923.00
2023-12-14T10:55:42.781Z,93931.00
2023-12-14T10:58:11.165Z,93923.00
2023-12-14T11:00:41.733Z,93929.00
2023-12-14T11:03:08.769Z,93947.00
2023-12-14T11:05:37.393Z,93942.00
2023-12-14T11:08:11.302Z,93952.00
2023-12-14T11:10:44.937Z,93957.00
2023-12-14T11:13:15.885Z,93960.00
2023-12-14T11:15:53.526Z,93960.00
2023-12-14T11:18:22.019Z,93967.00
2023-12-14T11:21:00.072Z,93965.00
2023-12-14T11:23:29.569Z,93972.00
2023-12-14T11:26:12.757Z,93971.00
2023-12-14T11:28:44.074Z,93978.00
2023-12-14T11:31:15.084Z,93976.00
2023-12-14T11:33:45.463Z,93978.00
2023-12-14T11:36:13.800Z,93975.00
2023-12-14T11:38:41.000Z,93989.00
2023-12-14T11:41:10.937Z,93987.00
2023-12-14T11:43:45.569Z,93981.00
2023-12-14T11:46:16.710Z,93991.00
2023-12-14T11:48:47.513Z,93994.00
2023-12-14T11:51:14.675Z,93996.00
2023-12-14T11:53:44.104Z,93997.00
2023-12-14T11:56:11.162Z,93999.00
2023-12-14T11:58:41.942Z,94003.00
2023-12-14T12:01:20.441Z,94005.00
2023-12-14T12:03:50.028Z,94003.00
2023-12-14T12:06:31.594Z,94010.00
2023-12-14T12:09:00.818Z,94010.00
2023-12-14T12:11:30.967Z,94015.00
2023-12-14T12:14:01.124Z,94011.00
2023-12-14T12:16:35.982Z,94007.00
2023-12-14T12:19:03.003Z,94019.00
2023-12-14T12:21:29.919Z,94011.00
2023-12-14T12:23:59.352Z,94011.00
2023-12-14T12:26:26.209Z,94015.00
2023-12-14T12:28:53.462Z,94015.00
2023-12-14T12:31:23.008Z,94020.00
2023-12-14T12:33:49.998Z,94025.00
2023-12-14T12:36:16.879Z,94022.00
2023-12-14T12:38:46.120Z,94035.00
2023-12-14T12:41:13.156Z,94034.00
2023-12-14T12:43:42.262Z,94037.00
2023-12-14T12:46:11.766Z,94040.00
2023-12-14T12:48:41.286Z,94031.00
2023-12-14T12:51:10.588Z,94043.00
2023-12-14T12:53:42.197Z,94034.00
2023-12-14T12:56:14.151Z,94048.00
2023-12-14T12:58:41.101Z,94037.00
2023-12-14T13:01:08.137Z,94048.00
2023-12-14T13:03:37.455Z,94044.00
2023-12-14T13:06:07.130Z,94056.00
2023-12-14T13:08:34.223Z,94052.00
2023-12-14T13:11:01.285Z,94050.00
2023-12-14T13:13:32.353Z,94055.00
2023-12-14T13:15:59.346Z,94065.00
2023-12-14T13:18:33.558Z,94062.00
2023-12-14T13:21:02.726Z,94068.00
2023-12-14T13:23:29.669Z,94073.00
2023-12-14T13:25:56.752Z,94063.00
2023-12-14T13:28:24.503Z,94080.00
2023-12-14T13:30:51.402Z,94084.00
2023-12-14T13:33:18.385Z,94090.00
2023-12-14T13:35:45.412Z,94095.00
2023-12-14T13:38:12.362Z,94095.00
2023-12-14T13:40:41.815Z,94100.00
2023-12-14T13:43:13.920Z,94100.00
2023-12-14T13:45:55.075Z,94106.00
2023-12-14T13:48:29.870Z,94120.00
2023-12-14T13:50:59.781Z,94115.00
2023-12-14T13:53:31.873Z,94119.00
2023-12-14T13:55:59.371Z,94116.00
2023-12-14T13:58:28.511Z,94117.00
2023-12-14T14:00:55.572Z,94121.00
2023-12-14T14:03:27.370Z,94128.00
2023-12-14T14:05:56.873Z,94131.00
2023-12-14T14:08:28.517Z,94135.00
2023-12-14T14:10:55.435Z,94142.00
2023-12-14T14:13:24.481Z,94150.00
2023-12-14T14:15:53.795Z,94159.00
2023-12-14T14:18:21.632Z,94156.00
2023-12-14T14:20:48.749Z,94164.00
2023-12-14T14:23:15.740Z,94164.00
2023-12-14T14:25:42.757Z,94172.00
2023-12-14T14:28:09.779Z,94163.00
2023-12-14T14:30:39.751Z,94188.00
2023-12-14T14:33:09.216Z,94191.00
2023-12-14T14:35:38.250Z,94187.00
2023-12-14T14:38:05.323Z,94200.00
2023-12-14T14:40:32.287Z,94199.00
2023-12-14T14:42:59.818Z,94208.00
2023-12-14T14:45:29.303Z,94208.00
2023-12-14T14:47:56.319Z,94216.00
2023-12-14T14:50:25.923Z,94216.00
2023-12-14T14:52:57.900Z,94213.00
2023-12-14T14:55:29.318Z,94221.00
2023-12-14T14:58:00.822Z,94221.00
2023-12-14T15:00:29.986Z,94229.00
2023-12-14T15:02:56.904Z,94227.00
2023-12-14T15:05:24.002Z,94228.00
2023-12-14T15:07:53.336Z,94230.00
2023-12-14T15:10:20.293Z,94229.00
2023-12-14T15:12:47.215Z,94239.00
2023-12-14T15:15:16.674Z,94242.00
2023-12-14T15:17:43.544Z,94238.00
2023-12-14T15:20:11.043Z,94254.00
2023-12-14T15:22:38.226Z,94252.00
2023-12-14T15:25:06.198Z,94269.00
2023-12-14T15:27:35.770Z,94268.00
2023-12-14T15:30:07.327Z,94276.00
2023-12-14T15:32:34.600Z,94281.00
2023-12-14T15:35:04.115Z,94290.00
2023-12-14T15:37:31.177Z,94291.00
2023-12-14T15:39:58.110Z,94286.00
2023-12-14T15:42:29.597Z,94312.00
2023-12-14T15:44:56.474Z,94313.00
2023-12-14T15:47:23.927Z,94318.00
2023-12-14T15:49:50.986Z,94322.00
2023-12-14T15:52:20.119Z,94328.00
2023-12-14T15:54:49.101Z,94331.00
2023-12-14T15:57:20.819Z,94323.00
2023-12-14T15:59:47.710Z,94338.00
2023-12-14T16:02:14.629Z,94336.00
2023-12-14T16:04:41.629Z,94341.00
2023-12-14T16:07:08.633Z,94349.00
2023-12-14T16:09:35.566Z,94350.00
2023-12-14T16:12:05.769Z,94357.00
2023-12-14T16:14:32.821Z,94355.00
2023-12-14T16:16:59.971Z,94363.00
2023-12-14T16:19:32.114Z,94355.00
2023-12-14T16:22:01.271Z,94365.00
2023-12-14T16:24:30.407Z,94372.00
2023-12-14T16:26:59.742Z,94376.00
2023-12-14T16:29:33.781Z,94382.00
2023-12-14T16:32:01.475Z,94389.00
2023-12-14T16:34:31.467Z,94390.00
2023-12-14T16:37:02.700Z,94392.00
2023-12-14T16:39:36.565Z,94394.00
2023-12-14T16:42:03.820Z,94399.00
2023-12-14T16:44:37.298Z,94403.00
2023-12-14T16:47:10.588Z,94405.00
2023-12-14T16:49:43.390Z,94402.00
2023-12-14T16:52:12.928Z,94412.00
2023-12-14T16:54:41.077Z,94419.00
2023-12-14T16:57:08.133Z,94419.00
2023-12-14T16:59:38.892Z,94423.00
2023-12-14T17:02:11.201Z,94419.00
2023-12-14T17:04:41.559Z,94424.00
2023-12-14T17:07:08.457Z,94429.00
2023-12-14T17:09:39.670Z,94449.00
2023-12-14T17:12:09.380Z,94455.00
2023-12-14T17:14:41.333Z,94459.00
2023-12-14T17:17:08.182Z,94458.00
2023-12-14T17:19:40.221Z,94468.00
2023-12-14T17:22:07.123Z,94477.00
2023-12-14T17:24:36.582Z,94471.00
2023-12-14T17:27:03.988Z,94476.00
2023-12-14T17:29:33.211Z,94473.00
2023-12-14T17:32:00.267Z,94488.00
2023-12-14T17:34:27.294Z,94491.00
2023-12-14T17:36:54.405Z,94496.00
2023-12-14T17:39:21.625Z,94493.00
2023-12-14T17:41:48.613Z,94503.00
2023-12-14T17:44:15.605Z,94498.00
2023-12-14T17:46:47.322Z,94502.00
2023-12-14T17:49:14.331Z,94506.00
2023-12-14T17:51:44.788Z,94515.00
2023-12-14T17:54:12.472Z,94509.00
2023-12-14T17:56:41.853Z,94513.00
2023-12-14T17:59:13.838Z,94520.00
2023-12-14T18:01:48.619Z,94519.00
2023-12-14T18:04:15.899Z,94526.00
2023-12-14T18:06:50.120Z,94518.00
2023-12-14T18:09:18.751Z,94528.00
2023-12-14T18:11:50.224Z,94530.00
2023-12-14T18:14:17.217Z,94525.00
2023-12-14T18:16:48.829Z,94534.00
2023-12-14T18:19:15.923Z,94508.00
2023-12-14T18:21:46.500Z,94532.00
2023-12-14T18:24:13.494Z,94532.00
2023-12-14T18:26:42.535Z,94542.00
2023-12-14T18:29:09.652Z,94546.00
2023-12-14T18:31:36.773Z,94550.00
2023-12-14T18:34:11.578Z,94553.00
2023-12-14T18:36:38.476Z,94560.00
2023-12-14T18:39:07.898Z,94561.00
2023-12-14T18:41:39.501Z,94571.00
2023-12-14T18:44:11.124Z,94572.00
2023-12-14T18:46:38.047Z,94572.00
2023-12-14T18:49:07.654Z,94578.00
2023-12-14T18:51:38.232Z,94582.00
2023-12-14T18:54:11.432Z,94580.00
2023-12-14T18:56:38.511Z,94591.00
2023-12-14T18:59:07.578Z,94584.00
2023-12-14T19:01:37.059Z,94596.00
2023-12-14T19:04:06.323Z,94597.00
2023-12-14T19:06:33.341Z,94603.00
2023-12-14T19:09:00.282Z,94595.00
2023-12-14T19:11:29.567Z,94601.00
2023-12-14T19:14:01.277Z,94607.00
2023-12-14T19:16:33.805Z,94606.00
2023-12-14T19:19:01.765Z,94612.00
2023-12-14T19:21:28.961Z,94610.00
2023-12-14T19:24:02.889Z,94615.00
2023-12-14T19:26:32.390Z,94613.00
2023-12-14T19:28:59.686Z,94620.00
2023-12-14T19:31:31.195Z,94630.00
2023-12-14T19:33:58.005Z,94637.00
2023-12-14T19:36:27.467Z,94641.00
2023-12-14T19:38:54.627Z,94631.00
2023-12-14T19:41:24.127Z,94641.00
2023-12-14T19:43:51.114Z,94645.00
2023-12-14T19:46:18.721Z,94649.00
2023-12-14T19:48:45.843Z,94650.00
2023-12-14T19:51:12.827Z,94656.00
2023-12-14T19:53:44.301Z,94654.00
2023-12-14T19:56:11.553Z,94666.00
2023-12-14T19:58:43.315Z,94676.00
2023-12-14T20:01:15.031Z,94677.00
2023-12-14T20:03:42.034Z,94679.00
2023-12-14T20:06:11.069Z,94684.00
2023-12-14T20:08:43.909Z,94692.00
2023-12-14T20:11:22.066Z,94704.00
2023-12-14T20:13:49.229Z,94696.00
2023-12-14T20:16:16.141Z,94704.00
2023-12-14T20:18:43.133Z,94713.00
2023-12-14T20:21:12.629Z,94714.00
2023-12-14T20:23:44.677Z,94726.00
2023-12-14T20:26:21.372Z,94721.00
2023-12-14T20:28:54.287Z,94726.00
2023-12-14T20:31:21.471Z,94723.00
2023-12-14T20:33:48.442Z,94727.00
2023-12-14T20:36:15.927Z,94729.00
2023-12-14T20:38:45.709Z,94741.00
2023-12-14T20:41:14.954Z,94739.00
2023-12-14T20:43:44.379Z,94738.00
2023-12-14T20:46:13.773Z,94732.00
2023-12-14T20:48:41.443Z,94739.00
2023-12-14T20:51:10.714Z,94740.00
2023-12-14T20:53:38.288Z,94753.00
2023-12-14T20:56:05.904Z,94759.00
2023-12-14T20:58:39.707Z,94759.00
2023-12-14T21:01:09.225Z,94769.00
2023-12-14T21:03:40.078Z,94758.00
2023-12-14T21:06:08.144Z,94767.00
2023-12-14T21:08:35.107Z,94766.00
2023-12-14T21:11:04.352Z,94767.00
2023-12-14T21:13:31.753Z,94778.00
2023-12-14T21:16:03.610Z,94785.00
2023-12-14T21:18:33.021Z,94780.00
2023-12-14T21:21:00.564Z,94776.00
2023-12-14T21:23:27.491Z,94776.00
2023-12-14T21:26:09.129Z,94772.00
2023-12-14T21:28:39.126Z,94782.00
2023-12-14T21:31:08.490Z,94784.00
2023-12-14T21:33:35.607Z,94790.00
2023-12-14T21:36:05.098Z,94795.00
2023-12-14T21:38:33.436Z,94793.00
2023-12-14T21:41:00.536Z,94803.00
2023-12-14T21:43:27.569Z,94805.00
2023-12-14T21:45:56.771Z,94806.00
2023-12-14T21:48:23.934Z,94809.00
2023-12-14T21:50:50.909Z,94817.00
2023-12-14T21:53:17.971Z,94821.00
2023-12-14T21:55:44.923Z,94817.00
2023-12-14T21:58:11.932Z,94818.00
2023-12-14T22:00:41.461Z,94823.00
2023-12-14T22:03:08.483Z,94830.00
2023-12-14T22:05:37.779Z,94833.00
2023-12-14T22:08:07.275Z,94840.00
2023-12-14T22:10:34.248Z,94845.00
2023-12-14T22:13:01.084Z,94862.00
2023-12-14T22:15:27.974Z,94862.00
2023-12-14T22:17:57.506Z,94871.00
2023-12-14T22:20:27.021Z,94872.00
2023-12-14T22:22:53.999Z,94865.00
2023-12-14T22:25:23.264Z,94872.00
2023-12-14T22:27:50.239Z,94876.00
2023-12-14T22:30:17.285Z,94880.00
2023-12-14T22:32:46.770Z,94875.00
2023-12-14T22:35:13.961Z,94897.00
2023-12-14T22:37:45.445Z,94887.00
2023-12-14T22:40:13.043Z,94887.00
2023-12-14T22:42:40.101Z,94890.00
2023-12-14T22:45:07.538Z,94897.00
2023-12-14T22:47:34.812Z,94893.00
2023-12-14T22:50:06.842Z,94897.00
2023-12-14T22:52:33.881Z,94907.00
2023-12-14T22:55:03.311Z,94907.00
2023-12-14T22:57:34.393Z,94910.00
2023-12-14T23:00:03.711Z,94916.00
2023-12-14T23:02:30.664Z,94926.00
2023-12-14T23:04:57.590Z,94928.00
2023-12-14T23:07:24.553Z,94926.00
2023-12-14T23:09:54.493Z,94933.00
2023-12-14T23:12:24.042Z,94942.00
2023-12-14T23:14:50.941Z,94949.00
2023-12-14T23:17:21.145Z,94955.00
2023-12-14T23:19:51.603Z,94958.00
2023-12-14T23:22:23.394Z,94966.00
2023-12-14T23:24:55.569Z,94963.00
2023-12-14T23:27:22.503Z,94961.00
2023-12-14T23:29:49.378Z,94975.00
2023-12-14T23:32:18.643Z,94980.00
2023-12-14T23:34:50.611Z,94976.00
2023-12-14T23:37:20.303Z,94982.00
2023-12-14T23:39:49.289Z,94981.00
2023-12-14T23:42:16.171Z,94990.00
2023-12-14T23:44:43.144Z,95000.00
2023-12-14T23:47:13.296Z,95004.00
2023-12-14T23:49:40.237Z,95013.00
2023-12-14T23:52:07.087Z,95011.00
2023-12-14T23:54:36.500Z,95018.00
2023-12-14T23:57:06.213Z,95015.00
2023-12-14T23:59:35.751Z,95009.00
